Time;durP1;ratioP1;P1;durP2;ratioP2;P2;SDS_P1;SDS_P2;PMS_P1;PMS_P2;Temp;Humidity;BMP_temperature;BMP_pressure;BME280_temperature;BME280_humidity;BME280_pressure;Samples;Min_cycle;Max_cycle;Signal;HPM_P1;HPM_P2
2022/11/13 00:01:35;;;;;;;;;;;6.80;99.90;;;;;;5080715;28;19940;-78
2022/11/13 00:04:20;;;;;;;;;;;6.80;99.90;;;;;;5078235;28;20239;-78
2022/11/13 00:07:06;;;;;;;;;;;6.80;99.90;;;;;;5070740;28;19935;-77
2022/11/13 00:09:51;;;;;;;;;;;6.80;99.90;;;;;;5070881;28;19943;-77
2022/11/13 00:12:37;;;;;;;;;;;6.80;99.90;;;;;;5079209;28;19934;-77
2022/11/13 00:15:24;;;;;;;;;;;6.70;99.90;;;;;;5078821;28;19939;-77
2022/11/13 00:18:09;;;;;;;;;;;6.70;99.90;;;;;;5077728;28;19930;-76
2022/11/13 00:20:55;;;;;;;;;;;6.60;99.90;;;;;;5080293;28;19939;-78
2022/11/13 00:23:40;;;;;;;;;;;6.60;99.90;;;;;;5090554;28;19936;-81
2022/11/13 00:26:27;;;;;;;;;;;6.50;99.90;;;;;;5080411;28;19935;-78
2022/11/13 00:29:12;;;;;;;;;;;6.50;99.90;;;;;;5083932;28;19962;-80
2022/11/13 00:31:59;;;;;;;;;;;6.40;99.90;;;;;;5071548;28;19947;-78
2022/11/13 00:34:45;;;;;;;;;;;;;;;;;;5079475;28;20069;-79
2022/11/13 00:37:30;;;;;;;;;;;6.40;99.90;;;;;;5078970;28;19993;-78
2022/11/13 00:40:16;;;;;;;;;;;6.30;99.90;;;;;;5072267;28;20406;-79
2022/11/13 00:43:02;;;;;;;;;;;6.30;99.90;;;;;;5080752;28;19998;-78
2022/11/13 00:45:47;;;;;;;;;;;6.20;99.90;;;;;;5087482;28;19957;-81
2022/11/13 00:48:34;;;;;;;;;;;6.20;99.90;;;;;;5074655;28;20033;-77
2022/11/13 00:51:20;;;;;;;;;;;6.20;99.90;;;;;;5069886;28;19931;-78
2022/11/13 00:54:05;;;;;;;;;;;6.20;99.90;;;;;;5069829;28;20038;-80
2022/11/13 00:56:51;;;;;;;;;;;6.20;99.90;;;;;;5075596;28;19943;-78
2022/11/13 00:59:36;;;;;;;;;;;6.20;99.90;;;;;;5074649;28;19939;-79
2022/11/13 01:02:21;;;;;;;;;;;6.30;99.90;;;;;;5088271;28;20409;-77
2022/11/13 01:05:08;;;;;;;;;;;6.20;99.90;;;;;;5085608;28;19935;-78
2022/11/13 01:07:57;;;;;;;;;;;6.20;99.90;;;;;;5081604;28;19995;-78
2022/11/13 01:10:43;;;;;;;;;;;6.20;99.90;;;;;;5083866;28;20085;-78
2022/11/13 01:13:29;;;;;;;;;;;6.20;99.90;;;;;;5069177;28;20039;-79
2022/11/13 01:16:15;;;;;;;;;;;6.30;99.90;;;;;;5073658;28;20001;-82
2022/11/13 01:19:00;;;;;;;;;;;6.30;99.90;;;;;;5081208;28;19939;-81
2022/11/13 01:21:47;;;;;;;;;;;6.30;99.90;;;;;;5082774;28;19939;-78
2022/11/13 01:24:33;;;;;;;;;;;6.30;99.90;;;;;;5081274;28;19943;-78
2022/11/13 01:27:19;;;;;;;;;;;6.30;99.90;;;;;;5074226;28;19931;-77
2022/11/13 01:30:05;;;;;;;;;;;6.30;99.90;;;;;;5070995;28;19942;-81
2022/11/13 01:32:50;;;;;;;;;;;6.30;99.90;;;;;;5071481;28;19943;-78
2022/11/13 01:35:35;;;;;;;;;;;6.40;99.90;;;;;;5076898;28;19939;-80
2022/11/13 01:38:22;;;;;;;;;;;6.40;99.90;;;;;;5070963;28;20328;-80
2022/11/13 01:41:11;;;;;;;;;;;6.40;99.90;;;;;;5077573;28;19935;-79
2022/11/13 01:43:56;;;;;;;;;;;6.50;99.90;;;;;;5071349;28;19993;-80
2022/11/13 01:46:44;;;;;;;;;;;6.50;99.90;;;;;;5080241;28;19934;-81
2022/11/13 01:49:31;;;;;;;;;;;6.50;99.90;;;;;;5081276;28;20078;-79
2022/11/13 01:52:18;;;;;;;;;;;6.50;99.90;;;;;;5077430;28;20522;-80
2022/11/13 01:55:07;;;;;;;;;;;6.50;99.90;;;;;;5080515;28;20542;-79
2022/11/13 01:57:53;;;;;;;;;;;6.60;99.90;;;;;;5082037;28;20032;-80
2022/11/13 02:00:38;;;;;;;;;;;6.60;99.90;;;;;;5076951;28;19951;-80
2022/11/13 02:03:23;;;;;;;;;;;6.60;99.90;;;;;;5085668;28;19958;-78
2022/11/13 02:06:09;;;;;;;;;;;6.60;99.90;;;;;;5087492;28;20381;-78
2022/11/13 02:08:55;;;;;;;;;;;6.60;99.90;;;;;;5083830;28;19946;-79
2022/11/13 02:11:41;;;;;;;;;;;6.60;99.90;;;;;;5079165;28;20082;-77
2022/11/13 02:14:28;;;;;;;;;;;6.60;99.90;;;;;;5088276;28;19991;-78
2022/11/13 02:17:16;;;;;;;;;;;6.60;99.90;;;;;;5077683;28;20040;-78
2022/11/13 02:20:03;;;;;;;;;;;6.60;99.90;;;;;;5076940;28;19939;-78
2022/11/13 02:22:51;;;;;;;;;;;6.60;99.90;;;;;;5090366;28;19931;-79
2022/11/13 02:25:38;;;;;;;;;;;7.10;99.90;;;;;;5081155;28;19962;-78
2022/11/13 02:28:23;;;;;;;;;;;6.60;99.90;;;;;;5090536;28;19977;-79
2022/11/13 02:31:09;;;;;;;;;;;6.60;99.90;;;;;;5074272;28;19939;-78
2022/11/13 02:33:56;;;;;;;;;;;6.60;99.90;;;;;;5076691;28;20021;-79
2022/11/13 02:36:41;;;;;;;;;;;6.60;99.90;;;;;;5080915;28;19993;-79
2022/11/13 02:39:27;;;;;;;;;;;6.60;99.90;;;;;;5078092;28;20400;-78
2022/11/13 02:42:13;;;;;;;;;;;6.60;99.90;;;;;;5080227;28;19978;-79
2022/11/13 02:45:00;;;;;;;;;;;6.60;99.90;;;;;;5082524;28;19952;-79
2022/11/13 02:47:45;;;;;;;;;;;6.60;99.90;;;;;;5076556;28;20046;-78
2022/11/13 02:50:31;;;;;;;;;;;6.60;99.90;;;;;;5072766;28;20066;-79
2022/11/13 02:53:16;;;;;;;;;;;6.60;99.90;;;;;;5090824;28;20157;-80
2022/11/13 02:56:02;;;;;;;;;;;6.50;99.90;;;;;;5086524;28;19935;-78
2022/11/13 02:58:49;;;;;;;;;;;6.50;99.90;;;;;;5080808;28;19986;-79
2022/11/13 03:01:35;;;;;;;;;;;6.50;99.90;;;;;;5080632;28;19954;-79
2022/11/13 03:04:20;;;;;;;;;;;6.50;99.90;;;;;;5077955;28;20259;-78
2022/11/13 03:07:06;;;;;;;;;;;6.60;99.90;;;;;;5074128;28;19935;-77
2022/11/13 03:09:51;;;;;;;;;;;6.60;99.90;;;;;;5074374;28;19985;-77
2022/11/13 03:12:37;;;;;;;;;;;6.60;99.90;;;;;;5081278;28;19935;-77
2022/11/13 03:15:24;;;;;;;;;;;6.60;99.90;;;;;;5079159;28;20363;-77
2022/11/13 03:18:10;;;;;;;;;;;6.50;99.90;;;;;;5076754;28;19985;-78
2022/11/13 03:20:56;;;;;;;;;;;6.50;99.90;;;;;;5074440;28;19952;-79
2022/11/13 03:23:43;;;;;;;;;;;6.50;99.90;;;;;;5080097;28;19934;-79
2022/11/13 03:26:29;;;;;;;;;;;6.50;99.90;;;;;;5078559;28;19935;-79
2022/11/13 03:29:14;;;;;;;;;;;6.40;99.90;;;;;;5077117;28;19944;-79
2022/11/13 03:32:02;;;;;;;;;;;6.30;99.90;;;;;;5072735;28;19938;-79
2022/11/13 03:34:47;;;;;;;;;;;6.30;99.90;;;;;;5073899;28;20021;-78
2022/11/13 03:37:33;;;;;;;;;;;6.20;99.90;;;;;;5071385;28;20151;-79
2022/11/13 03:40:19;;;;;;;;;;;6.30;99.90;;;;;;5082714;28;19986;-79
2022/11/13 03:43:04;;;;;;;;;;;6.30;99.90;;;;;;5081111;28;19935;-80
2022/11/13 03:45:50;;;;;;;;;;;6.30;99.90;;;;;;5075429;28;20004;-80
2022/11/13 03:48:36;;;;;;;;;;;6.30;99.90;;;;;;5078190;28;19966;-77
2022/11/13 03:51:22;;;;;;;;;;;6.30;99.90;;;;;;5071454;28;20074;-77
2022/11/13 03:54:07;;;;;;;;;;;6.20;99.90;;;;;;5082810;28;19951;-78
2022/11/13 03:56:52;;;;;;;;;;;6.20;99.90;;;;;;5087914;28;20006;-78
2022/11/13 03:59:37;;;;;;;;;;;6.20;99.90;;;;;;5079808;28;20342;-77
2022/11/13 04:02:23;;;;;;;;;;;6.20;99.90;;;;;;5070799;28;20092;-78
2022/11/13 04:05:10;;;;;;;;;;;6.10;99.90;;;;;;5071271;28;19959;-77
2022/11/13 04:07:55;;;;;;;;;;;6.10;99.90;;;;;;5079467;28;20679;-78
2022/11/13 04:10:40;;;;;;;;;;;6.00;99.90;;;;;;5072102;28;19936;-78
2022/11/13 04:13:26;;;;;;;;;;;5.90;99.90;;;;;;5075211;28;19935;-78
2022/11/13 04:16:12;;;;;;;;;;;5.80;99.90;;;;;;5074658;28;19939;-77
2022/11/13 04:18:57;;;;;;;;;;;5.80;99.90;;;;;;5076102;28;19936;-78
2022/11/13 04:21:47;;;;;;;;;;;6.00;99.90;;;;;;5085378;28;19943;-77
2022/11/13 04:24:33;;;;;;;;;;;5.70;99.90;;;;;;5086281;28;20456;-78
2022/11/13 04:27:19;;;;;;;;;;;5.70;99.90;;;;;;5074535;28;19939;-77
2022/11/13 04:30:05;;;;;;;;;;;5.60;99.90;;;;;;5082762;28;19931;-78
2022/11/13 04:32:50;;;;;;;;;;;5.50;99.90;;;;;;5078139;28;19935;-78
2022/11/13 04:35:35;;;;;;;;;;;5.50;99.90;;;;;;5071848;28;19939;-78
2022/11/13 04:38:22;;;;;;;;;;;5.40;99.90;;;;;;5070085;28;19939;-77
2022/11/13 04:44:15;;;;;;;;;;;5.40;99.90;;;;;;5071160;28;19939;-77
2022/11/13 04:47:01;;;;;;;;;;;5.30;99.90;;;;;;5073387;28;19963;-78
2022/11/13 04:49:46;;;;;;;;;;;5.30;99.90;;;;;;5078478;28;19935;-78
2022/11/13 04:52:32;;;;;;;;;;;5.30;99.90;;;;;;5074528;28;20005;-78
2022/11/13 04:55:19;;;;;;;;;;;5.20;99.90;;;;;;5076826;28;19935;-79
2022/11/13 04:58:04;;;;;;;;;;;5.20;99.90;;;;;;5083051;28;20013;-80
2022/11/13 05:00:49;;;;;;;;;;;5.20;99.90;;;;;;5084851;28;19931;-80
2022/11/13 05:03:35;;;;;;;;;;;5.10;99.90;;;;;;5075264;28;20418;-80
2022/11/13 05:06:21;;;;;;;;;;;5.10;99.90;;;;;;5075632;28;19931;-81
2022/11/13 05:09:06;;;;;;;;;;;5.10;99.90;;;;;;5074818;28;19934;-81
2022/11/13 05:11:53;;;;;;;;;;;5.10;99.90;;;;;;5075156;28;19935;-81
2022/11/13 05:14:40;;;;;;;;;;;5.10;99.90;;;;;;5075582;28;19936;-81
2022/11/13 05:17:25;;;;;;;;;;;5.10;99.90;;;;;;5075867;28;20002;-81
2022/11/13 05:20:11;;;;;;;;;;;5.00;99.90;;;;;;5074830;28;20006;-80
2022/11/13 05:22:56;;;;;;;;;;;5.00;99.90;;;;;;5076600;28;20379;-82
2022/11/13 05:25:41;;;;;;;;;;;5.00;99.90;;;;;;5075505;28;19935;-81
2022/11/13 05:28:28;;;;;;;;;;;4.90;99.90;;;;;;5089733;28;19962;-81
2022/11/13 05:31:16;;;;;;;;;;;4.90;99.90;;;;;;5075733;28;19932;-78
2022/11/13 05:34:03;;;;;;;;;;;4.90;99.90;;;;;;5075375;28;19932;-82
2022/11/13 05:36:49;;;;;;;;;;;4.80;99.90;;;;;;5075266;28;19936;-79
2022/11/13 05:39:34;;;;;;;;;;;4.80;99.90;;;;;;5088659;28;20445;-78
2022/11/13 05:42:20;;;;;;;;;;;4.80;99.90;;;;;;5083114;28;19974;-80
2022/11/13 05:45:07;;;;;;;;;;;4.80;99.90;;;;;;5079339;28;20357;-80
2022/11/13 05:47:54;;;;;;;;;;;4.70;99.90;;;;;;5077718;28;20013;-78
2022/11/13 05:50:40;;;;;;;;;;;4.70;99.90;;;;;;5084889;28;19935;-80
2022/11/13 05:53:25;;;;;;;;;;;4.70;99.90;;;;;;5092546;28;19947;-81
2022/11/13 05:56:12;;;;;;;;;;;4.70;99.90;;;;;;5101439;28;19930;-80
2022/11/13 05:58:58;;;;;;;;;;;4.60;99.90;;;;;;5092327;28;20296;-81
2022/11/13 06:01:45;;;;;;;;;;;4.60;99.90;;;;;;5092462;28;19935;-80
2022/11/13 06:04:30;;;;;;;;;;;4.50;99.90;;;;;;5089687;28;19946;-80
2022/11/13 06:07:16;;;;;;;;;;;4.50;99.90;;;;;;5092644;28;19950;-80
2022/11/13 06:10:02;;;;;;;;;;;4.40;99.90;;;;;;5089164;28;19935;-80
2022/11/13 06:12:47;;;;;;;;;;;4.40;99.90;;;;;;5086966;28;19996;-79
2022/11/13 06:15:32;;;;;;;;;;;4.40;99.90;;;;;;5077864;28;20421;-79
2022/11/13 06:18:23;;;;;;;;;;;4.30;99.90;;;;;;5096229;28;19985;-79
2022/11/13 06:21:09;;;;;;;;;;;4.30;99.90;;;;;;5077295;28;19939;-79
2022/11/13 06:23:57;;;;;;;;;;;4.30;99.90;;;;;;5076895;28;19931;-77
2022/11/13 06:26:42;;;;;;;;;;;4.20;99.90;;;;;;5076345;28;19946;-78
2022/11/13 06:29:28;;;;;;;;;;;4.90;99.90;;;;;;5073281;28;19943;-77
2022/11/13 06:32:13;;;;;;;;;;;4.20;99.90;;;;;;5077530;28;20414;-78
2022/11/13 06:35:00;;;;;;;;;;;4.30;99.90;;;;;;5075957;28;20042;-78
2022/11/13 06:37:45;;;;;;;;;;;4.20;99.90;;;;;;5078732;28;19936;-80
2022/11/13 06:40:32;;;;;;;;;;;4.30;99.90;;;;;;5081526;28;19951;-78
2022/11/13 06:43:17;;;;;;;;;;;4.30;99.90;;;;;;5073768;28;19966;-77
2022/11/13 06:46:03;;;;;;;;;;;4.30;99.90;;;;;;5081810;28;19932;-78
2022/11/13 06:48:49;;;;;;;;;;;4.30;99.90;;;;;;5092645;28;19931;-78
2022/11/13 06:51:36;;;;;;;;;;;4.30;99.90;;;;;;5084823;28;19932;-78
2022/11/13 06:54:21;;;;;;;;;;;4.30;99.90;;;;;;5074220;28;20085;-77
2022/11/13 06:57:07;;;;;;;;;;;4.30;99.90;;;;;;5081423;28;20069;-77
2022/11/13 06:59:53;;;;;;;;;;;4.30;99.90;;;;;;5089967;28;19958;-77
2022/11/13 07:02:39;;;;;;;;;;;4.30;99.90;;;;;;5088380;28;20035;-78
2022/11/13 07:05:25;;;;;;;;;;;4.30;99.90;;;;;;5087369;28;19935;-78
2022/11/13 07:08:13;;;;;;;;;;;4.30;99.90;;;;;;5078395;28;20021;-78
2022/11/13 07:10:59;;;;;;;;;;;4.30;99.90;;;;;;5078932;28;19938;-78
2022/11/13 07:13:45;;;;;;;;;;;4.30;99.90;;;;;;5074380;28;19938;-78
2022/11/13 07:16:30;;;;;;;;;;;4.40;99.90;;;;;;5075624;28;20038;-78
2022/11/13 07:19:16;;;;;;;;;;;4.50;99.90;;;;;;5086284;28;20422;-79
2022/11/13 07:22:01;;;;;;;;;;;4.60;99.90;;;;;;5090145;28;20425;-79
2022/11/13 07:24:48;;;;;;;;;;;4.80;99.90;;;;;;5088850;28;19935;-79
2022/11/13 07:27:35;;;;;;;;;;;4.90;99.90;;;;;;5085155;28;20271;-79
2022/11/13 07:30:23;;;;;;;;;;;5.00;99.90;;;;;;5078117;28;19940;-79
2022/11/13 07:33:08;;;;;;;;;;;5.00;99.90;;;;;;5084567;28;19935;-79
2022/11/13 07:35:54;;;;;;;;;;;5.00;99.90;;;;;;5081253;28;19998;-78
2022/11/13 07:38:39;;;;;;;;;;;5.00;99.90;;;;;;5089998;28;20307;-79
2022/11/13 07:41:26;;;;;;;;;;;5.10;99.90;;;;;;5086600;28;20016;-80
2022/11/13 07:44:12;;;;;;;;;;;5.30;99.90;;;;;;5073693;28;20280;-79
2022/11/13 07:46:57;;;;;;;;;;;5.40;99.90;;;;;;5083293;28;20131;-79
2022/11/13 07:49:43;;;;;;;;;;;5.60;99.90;;;;;;5078156;28;20021;-79
2022/11/13 07:52:29;;;;;;;;;;;5.90;99.90;;;;;;5076005;28;19935;-79
2022/11/13 07:55:15;;;;;;;;;;;6.10;99.90;;;;;;5080953;28;19935;-77
2022/11/13 07:58:03;;;;;;;;;;;6.30;99.90;;;;;;5082111;28;20002;-77
2022/11/13 08:00:48;;;;;;;;;;;6.60;99.90;;;;;;5086753;28;20397;-76
2022/11/13 08:03:54;;;;;;;;;;;7.00;99.90;;;;;;5080369;28;20069;-76
2022/11/13 08:06:40;;;;;;;;;;;7.50;99.90;;;;;;5088791;28;20088;-76
2022/11/13 08:09:26;;;;;;;;;;;7.80;99.90;;;;;;5063833;28;19989;-77
2022/11/13 08:12:11;;;;;;;;;;;8.10;99.90;;;;;;5077345;28;20045;-77
2022/11/13 08:14:59;;;;;;;;;;;8.50;99.90;;;;;;5083900;28;20487;-77
2022/11/13 08:17:44;;;;;;;;;;;8.50;99.90;;;;;;5073202;28;20426;-78
2022/11/13 08:20:30;;;;;;;;;;;8.60;99.90;;;;;;5076754;28;20252;-79
2022/11/13 08:23:16;;;;;;;;;;;8.70;99.90;;;;;;5084149;28;19939;-78
2022/11/13 08:26:04;;;;;;;;;;;8.80;99.90;;;;;;5075610;28;20480;-79
2022/11/13 08:28:49;;;;;;;;;;;8.80;99.90;;;;;;5072976;28;19947;-77
2022/11/13 08:31:37;;;;;;;;;;;8.90;99.90;;;;;;5085342;28;20437;-78
2022/11/13 08:34:22;;;;;;;;;;;9.00;99.90;;;;;;5090044;28;19934;-78
2022/11/13 08:37:08;;;;;;;;;;;9.00;99.90;;;;;;5088149;28;20488;-79
2022/11/13 08:39:54;;;;;;;;;;;9.00;99.90;;;;;;5088534;28;20414;-79
2022/11/13 08:42:40;;;;;;;;;;;9.00;99.90;;;;;;5078315;28;20002;-77
2022/11/13 08:45:26;;;;;;;;;;;8.90;99.90;;;;;;5075143;28;19943;-78
2022/11/13 08:48:13;;;;;;;;;;;8.90;99.90;;;;;;5072448;28;19939;-80
2022/11/13 08:50:59;;;;;;;;;;;8.80;99.90;;;;;;5077272;28;20299;-79
2022/11/13 08:53:44;;;;;;;;;;;8.80;99.90;;;;;;5090784;28;19981;-77
2022/11/13 08:56:30;;;;;;;;;;;8.80;99.90;;;;;;5088977;28;19935;-77
2022/11/13 08:59:17;;;;;;;;;;;8.80;99.90;;;;;;5079126;28;20429;-78
2022/11/13 09:02:03;;;;;;;;;;;8.90;99.90;;;;;;5088718;28;19958;-80
2022/11/13 09:04:50;;;;;;;;;;;9.00;99.90;;;;;;5087892;28;20129;-81
2022/11/13 09:07:35;;;;;;;;;;;9.10;99.90;;;;;;5085169;28;20011;-81
2022/11/13 09:10:21;;;;;;;;;;;9.40;99.90;;;;;;5085116;28;19951;-81
2022/11/13 09:13:10;;;;;;;;;;;9.40;99.90;;;;;;5085716;28;19935;-81
2022/11/13 09:15:57;;;;;;;;;;;9.60;99.90;;;;;;5086185;28;19931;-81
2022/11/13 09:18:48;;;;;;;;;;;9.80;99.90;;;;;;5084634;28;20013;-81
2022/11/13 09:21:35;;;;;;;;;;;10.00;99.90;;;;;;5077254;28;19981;-81
2022/11/13 09:24:21;;;;;;;;;;;10.20;99.90;;;;;;5087025;28;20711;-81
2022/11/13 09:27:06;;;;;;;;;;;10.40;99.90;;;;;;5081027;28;19951;-81
2022/11/13 09:29:52;;;;;;;;;;;10.60;99.90;;;;;;5089997;28;20395;-80
2022/11/13 09:32:38;;;;;;;;;;;10.80;99.90;;;;;;5089740;28;19939;-81
2022/11/13 09:35:33;;;;;;;;;;;11.20;99.90;;;;;;5089156;28;20382;-80
2022/11/13 09:38:20;;;;;;;;;;;11.20;99.90;;;;;;5090134;28;20058;-78
2022/11/13 09:41:09;;;;;;;;;;;11.50;99.90;;;;;;5091097;28;20029;-80
2022/11/13 09:43:55;;;;;;;;;;;11.70;99.90;;;;;;5087495;28;20367;-79
2022/11/13 09:46:42;;;;;;;;;;;11.80;99.90;;;;;;5088878;28;20435;-80
2022/11/13 09:49:29;;;;;;;;;;;12.00;99.90;;;;;;5087899;28;19942;-80
2022/11/13 09:52:17;;;;;;;;;;;12.20;99.90;;;;;;5086105;28;19935;-80
2022/11/13 09:55:06;;;;;;;;;;;12.60;99.90;;;;;;5087876;28;19935;-80
2022/11/13 09:57:55;;;;;;;;;;;12.50;99.90;;;;;;5084933;28;19935;-80
2022/11/13 10:00:43;;;;;;;;;;;12.80;99.90;;;;;;5083778;28;19937;-80
2022/11/13 10:03:32;;;;;;;;;;;13.00;99.90;;;;;;5091492;28;19939;-80
2022/11/13 10:06:20;;;;;;;;;;;13.20;99.90;;;;;;5079707;28;20012;-80
2022/11/13 10:09:15;;;;;;;;;;;13.50;99.90;;;;;;5075197;28;19932;-78
2022/11/13 10:12:04;;;;;;;;;;;13.70;99.90;;;;;;5075129;28;19939;-78
2022/11/13 10:14:52;;;;;;;;;;;14.00;99.90;;;;;;5083222;28;19939;-76
2022/11/13 10:17:39;;;;;;;;;;;14.20;99.90;;;;;;5082934;28;20025;-78
2022/11/13 10:20:29;;;;;;;;;;;14.50;99.90;;;;;;5083623;28;20078;-77
2022/11/13 10:23:18;;;;;;;;;;;14.70;99.90;;;;;;5076168;28;19935;-77
2022/11/13 10:26:11;;;;;;;;;;;14.90;99.90;;;;;;5089593;28;19936;-78
2022/11/13 10:29:11;;;;;;;;;;;15.10;99.90;;;;;;5085688;28;19974;-78
2022/11/13 10:31:57;;;;;;;;;;;15.30;99.90;;;;;;5088557;28;19950;-77
2022/11/13 10:34:44;;;;;;;;;;;15.50;99.90;;;;;;5075397;28;19932;-77
2022/11/13 10:37:58;;;;;;;;;;;15.70;99.90;;;;;;5088229;28;19934;-76
2022/11/13 10:40:44;;;;;;;;;;;15.90;99.90;;;;;;5079407;28;19951;-76
2022/11/13 10:43:30;;;;;;;;;;;16.20;99.90;;;;;;5081248;28;19978;-76
2022/11/13 10:46:43;;;;;;;;;;;16.60;99.90;;;;;;5085263;28;19935;-78
2022/11/13 10:49:30;;;;;;;;;;;16.60;99.90;;;;;;5046986;28;20026;-82
2022/11/13 10:52:19;;;;;;;;;;;16.90;99.90;;;;;;5095615;28;19939;-79
2022/11/13 10:55:12;;;;;;;;;;;17.20;99.90;;;;;;5087949;28;19981;-79
2022/11/13 10:57:58;;;;;;;;;;;17.20;99.90;;;;;;5095618;28;19946;-79
2022/11/13 11:00:48;;;;;;;;;;;17.40;99.90;;;;;;5093145;28;19939;-78
2022/11/13 11:03:34;;;;;;;;;;;17.60;99.90;;;;;;5096214;28;19935;-78
2022/11/13 11:06:38;;;;;;;;;;;17.70;99.90;;;;;;5084170;28;19950;-78
2022/11/13 11:09:32;;;;;;;;;;;17.90;99.90;;;;;;5088347;28;20077;-78
2022/11/13 11:12:18;;;;;;;;;;;18.10;99.90;;;;;;5091158;28;20013;-77
2022/11/13 11:15:10;;;;;;;;;;;18.50;99.90;;;;;;5085802;28;19935;-78
2022/11/13 11:17:59;;;;;;;;;;;18.50;99.90;;;;;;5088872;28;19935;-76
2022/11/13 11:20:48;;;;;;;;;;;18.70;99.90;;;;;;5088676;28;19958;-78
2022/11/13 11:23:37;;;;;;;;;;;18.90;99.90;;;;;;5091280;28;19939;-78
2022/11/13 11:26:26;;;;;;;;;;;19.00;99.90;;;;;;5090850;28;20033;-77
2022/11/13 11:29:16;;;;;;;;;;;19.20;99.90;;;;;;5089537;28;19943;-77
2022/11/13 11:32:07;;;;;;;;;;;19.30;99.90;;;;;;5083197;28;20464;-76
2022/11/13 11:34:55;;;;;;;;;;;19.70;99.90;;;;;;5091590;28;20013;-77
2022/11/13 11:37:46;;;;;;;;;;;19.70;99.90;;;;;;5087223;28;20025;-76
2022/11/13 11:40:35;;;;;;;;;;;19.80;99.90;;;;;;5086029;28;19951;-76
2022/11/13 11:43:23;;;;;;;;;;;19.90;99.90;;;;;;5085652;28;21630;-75
2022/11/13 11:46:19;;;;;;;;;;;20.00;99.90;;;;;;5086047;28;20028;-76
2022/11/13 11:49:05;;;;;;;;;;;20.00;99.90;;;;;;5084574;28;20369;-77
2022/11/13 11:51:54;;;;;;;;;;;20.00;99.90;;;;;;5082049;28;19947;-76
2022/11/13 11:54:42;;;;;;;;;;;21.40;99.90;;;;;;5086363;28;20397;-77
2022/11/13 11:57:37;;;;;;;;;;;20.10;99.90;;;;;;5083765;28;20070;-77
2022/11/13 12:00:22;;;;;;;;;;;20.10;99.90;;;;;;5087658;28;19977;-76
2022/11/13 12:03:30;;;;;;;;;;;20.20;99.90;;;;;;5089626;28;20143;-76
2022/11/13 12:06:19;;;;;;;;;;;20.30;99.90;;;;;;5052688;28;19935;-77
2022/11/13 12:09:08;;;;;;;;;;;20.30;99.90;;;;;;5082074;28;19936;-76
2022/11/13 12:12:01;;;;;;;;;;;20.30;99.90;;;;;;5081121;28;20011;-78
2022/11/13 12:14:56;;;;;;;;;;;20.30;99.90;;;;;;5086454;28;19935;-76
2022/11/13 12:17:52;;;;;;;;;;;20.30;99.90;;;;;;5089504;28;19985;-76
2022/11/13 12:20:42;;;;;;;;;;;20.30;99.90;;;;;;5090873;28;19950;-76
2022/11/13 12:23:34;;;;;;;;;;;20.30;99.90;;;;;;5074696;28;20024;-77
2022/11/13 12:26:24;;;;;;;;;;;20.30;99.90;;;;;;5077388;28;19939;-77
2022/11/13 12:29:14;;;;;;;;;;;20.40;99.90;;;;;;5078503;28;20782;-76
2022/11/13 12:32:07;;;;;;;;;;;20.50;99.90;;;;;;5079026;28;19939;-76
2022/11/13 12:34:53;;;;;;;;;;;;;;;;;;5080608;28;20315;-75
2022/11/13 12:37:42;;;;;;;;;;;20.60;99.90;;;;;;5091357;28;19934;-75
2022/11/13 12:40:32;;;;;;;;;;;20.60;99.90;;;;;;5078119;28;20050;-76
2022/11/13 12:43:51;;;;;;;;;;;20.70;99.90;;;;;;5081036;28;19936;-76
2022/11/13 12:46:39;;;;;;;;;;;20.80;99.90;;;;;;5007203;28;19961;-76
2022/11/13 12:49:30;;;;;;;;;;;20.80;99.90;;;;;;5008902;28;20532;-76
2022/11/13 12:52:17;;;;;;;;;;;20.80;99.90;;;;;;5061589;28;19935;-76
2022/11/13 12:55:04;;;;;;;;;;;20.90;99.90;;;;;;5084839;28;19931;-76
2022/11/13 12:57:50;;;;;;;;;;;20.90;99.90;;;;;;5073116;28;19935;-76
2022/11/13 13:00:36;;;;;;;;;;;20.80;99.90;;;;;;5082052;28;19947;-75
2022/11/13 13:03:37;;;;;;;;;;;20.80;99.90;;;;;;5071216;28;20772;-75
2022/11/13 13:06:36;;;;;;;;;;;20.80;99.90;;;;;;5076402;28;20443;-74
2022/11/13 13:09:29;;;;;;;;;;;20.80;99.90;;;;;;5075915;28;19958;-73
2022/11/13 13:12:18;;;;;;;;;;;20.80;99.90;;;;;;5079563;28;19938;-76
2022/11/13 13:15:24;;;;;;;;;;;20.70;99.90;;;;;;5082168;28;19974;-75
2022/11/13 13:18:11;;;;;;;;;;;20.70;99.90;;;;;;5086105;28;20487;-77
2022/11/13 13:21:03;;;;;;;;;;;20.70;99.90;;;;;;5079793;28;20832;-75
2022/11/13 13:23:52;;;;;;;;;;;20.60;99.90;;;;;;5082765;28;20001;-76
2022/11/13 13:26:44;;;;;;;;;;;20.50;99.90;;;;;;5086462;28;20009;-77
2022/11/13 13:29:30;;;;;;;;;;;20.50;99.90;;;;;;5077096;28;19935;-78
2022/11/13 13:32:18;;;;;;;;;;;20.40;99.90;;;;;;5078508;28;20358;-77
2022/11/13 13:35:08;;;;;;;;;;;20.30;99.90;;;;;;5078999;28;19935;-78
2022/11/13 13:37:56;;;;;;;;;;;20.30;99.90;;;;;;5075541;28;19996;-78
2022/11/13 13:40:50;;;;;;;;;;;20.10;99.90;;;;;;5075453;28;20018;-76
2022/11/13 13:43:41;;;;;;;;;;;20.00;99.90;;;;;;5077313;28;19932;-77
2022/11/13 13:46:29;;;;;;;;;;;20.10;99.90;;;;;;5078669;28;19943;-76
2022/11/13 13:49:16;;;;;;;;;;;19.80;99.90;;;;;;5089309;28;20009;-76
2022/11/13 13:52:04;;;;;;;;;;;19.60;99.90;;;;;;5074121;28;20414;-76
2022/11/13 13:54:50;;;;;;;;;;;19.60;99.90;;;;;;5085275;28;20028;-76
2022/11/13 13:57:40;;;;;;;;;;;19.50;99.90;;;;;;5084445;28;19931;-77
2022/11/13 14:00:26;;;;;;;;;;;19.40;99.90;;;;;;5083072;28;19947;-77
2022/11/13 14:03:18;;;;;;;;;;;19.30;99.90;;;;;;5083507;28;19947;-77
2022/11/13 14:06:19;;;;;;;;;;;19.20;99.90;;;;;;5079415;28;19934;-76
2022/11/13 14:09:08;;;;;;;;;;;19.10;99.90;;;;;;5085814;28;19982;-77
2022/11/13 14:11:58;;;;;;;;;;;20.90;99.90;;;;;;5081520;28;19936;-76
2022/11/13 14:14:44;;;;;;;;;;;18.40;99.90;;;;;;5087304;28;19973;-77
2022/11/13 14:17:31;;;;;;;;;;;18.60;99.90;;;;;;5077775;28;19932;-76
2022/11/13 14:20:17;;;;;;;;;;;18.50;99.90;;;;;;5089364;28;20589;-77
2022/11/13 14:23:03;;;;;;;;;;;18.30;99.90;;;;;;5079034;28;20002;-77
2022/11/13 14:25:48;;;;;;;;;;;18.30;99.90;;;;;;5080005;28;19930;-76
2022/11/13 14:28:41;;;;;;;;;;;18.20;99.90;;;;;;5088930;28;20084;-74
2022/11/13 14:31:31;;;;;;;;;;;18.10;99.90;;;;;;5079890;28;20073;-76
2022/11/13 14:34:17;;;;;;;;;;;17.90;99.90;;;;;;5075912;28;19939;-77
2022/11/13 14:37:11;;;;;;;;;;;17.80;99.90;;;;;;5079761;28;20041;-77
2022/11/13 14:39:57;;;;;;;;;;;17.70;99.90;;;;;;5071321;28;19939;-76
2022/11/13 14:42:45;;;;;;;;;;;17.60;99.90;;;;;;5062452;28;20334;-76
2022/11/13 14:45:31;;;;;;;;;;;17.30;99.90;;;;;;5067192;28;19942;-79
2022/11/13 14:48:22;;;;;;;;;;;17.20;99.90;;;;;;5075231;28;19935;-76
2022/11/13 14:51:22;;;;;;;;;;;17.10;99.90;;;;;;5074618;28;19934;-77
2022/11/13 14:54:26;;;;;;;;;;;18.10;99.90;;;;;;5074848;28;20065;-77
2022/11/13 14:57:13;;;;;;;;;;;16.80;99.90;;;;;;5071096;28;19935;-76
2022/11/13 15:00:08;;;;;;;;;;;16.60;99.90;;;;;;5069475;28;20431;-77
2022/11/13 15:02:57;;;;;;;;;;;16.40;99.90;;;;;;5065291;28;20628;-77
2022/11/13 15:05:44;;;;;;;;;;;16.30;99.90;;;;;;5074152;28;19984;-76
2022/11/13 15:08:29;;;;;;;;;;;16.20;99.90;;;;;;5077577;28;19930;-77
2022/11/13 15:11:17;;;;;;;;;;;16.10;99.90;;;;;;5077990;28;19934;-76
2022/11/13 15:14:03;;;;;;;;;;;16.90;99.90;;;;;;5080477;28;19938;-77
2022/11/13 15:16:49;;;;;;;;;;;15.80;99.90;;;;;;5080834;28;20000;-76
2022/11/13 15:19:36;;;;;;;;;;;15.70;99.90;;;;;;5078802;28;19931;-77
2022/11/13 15:22:23;;;;;;;;;;;15.60;99.90;;;;;;5079937;28;20032;-77
2022/11/13 15:25:12;;;;;;;;;;;15.30;99.90;;;;;;5077762;28;19951;-76
2022/11/13 15:27:58;;;;;;;;;;;15.30;99.90;;;;;;5083814;28;20401;-76
2022/11/13 15:30:44;;;;;;;;;;;15.20;99.90;;;;;;5087264;28;19931;-78
2022/11/13 15:33:30;;;;;;;;;;;15.00;99.90;;;;;;5085203;28;20009;-75
2022/11/13 15:36:15;;;;;;;;;;;14.70;99.90;;;;;;5079959;28;19935;-74
2022/11/13 15:39:02;;;;;;;;;;;14.60;99.90;;;;;;5086439;28;19939;-77
2022/11/13 15:41:48;;;;;;;;;;;14.40;99.90;;;;;;5086078;28;19935;-75
2022/11/13 15:44:35;;;;;;;;;;;14.30;99.90;;;;;;5087754;28;20027;-75
2022/11/13 15:47:27;;;;;;;;;;;14.20;99.90;;;;;;5085071;28;20280;-75
2022/11/13 15:50:13;;;;;;;;;;;14.00;99.90;;;;;;5080825;28;19935;-75
2022/11/13 15:52:59;;;;;;;;;;;13.80;99.90;;;;;;5075593;28;19959;-75
2022/11/13 15:55:46;;;;;;;;;;;13.70;99.90;;;;;;5081332;28;19954;-76
2022/11/13 15:58:31;;;;;;;;;;;13.50;99.90;;;;;;5077028;28;19935;-75
2022/11/13 16:01:17;;;;;;;;;;;13.30;99.90;;;;;;5083462;28;20004;-75
2022/11/13 16:04:04;;;;;;;;;;;13.20;99.90;;;;;;5076831;28;20341;-74
2022/11/13 16:06:53;;;;;;;;;;;13.00;99.90;;;;;;5075418;28;20017;-76
2022/11/13 16:09:39;;;;;;;;;;;13.00;99.90;;;;;;5084373;28;20005;-75
2022/11/13 16:12:26;;;;;;;;;;;12.90;99.90;;;;;;5080137;28;19932;-76
2022/11/13 16:15:13;;;;;;;;;;;12.60;99.90;;;;;;5080422;28;19970;-76
2022/11/13 16:17:59;;;;;;;;;;;12.60;99.90;;;;;;5072097;28;19951;-76
2022/11/13 16:20:44;;;;;;;;;;;12.50;99.90;;;;;;5077154;28;19951;-76
2022/11/13 16:23:29;;;;;;;;;;;12.30;99.90;;;;;;5074303;28;20591;-75
2022/11/13 16:26:17;;;;;;;;;;;12.10;99.90;;;;;;5075609;28;20070;-76
2022/11/13 16:29:13;;;;;;;;;;;12.10;99.90;;;;;;5080223;28;19935;-75